createdAt,value
2022-11-13T00:01:42.634Z,19.08
2022-11-13T00:12:06.056Z,17.95
2022-11-13T00:22:27.291Z,19.58
2022-11-13T00:32:49.890Z,19.95
2022-11-13T00:43:11.137Z,46.25
2022-11-13T00:53:36.277Z,24.25
2022-11-13T01:03:58.033Z,21.42
2022-11-13T01:14:21.117Z,19.48
2022-11-13T01:24:42.584Z,18.00
2022-11-13T01:35:06.065Z,17.17
2022-11-13T01:46:19.417Z,16.73
2022-11-13T01:56:42.426Z,15.45
2022-11-13T02:07:06.844Z,15.68
2022-11-13T02:17:34.445Z,15.60
2022-11-13T02:27:57.398Z,15.32
2022-11-13T02:38:18.668Z,15.82
2022-11-13T02:48:41.429Z,14.38
2022-11-13T02:59:03.117Z,14.52
2022-11-13T03:09:26.165Z,14.68
2022-11-13T03:19:47.771Z,13.40
2022-11-13T03:30:11.917Z,13.15
2022-11-13T03:40:33.317Z,10.88
2022-11-13T03:50:57.034Z,10.77
2022-11-13T04:01:18.463Z,10.75
2022-11-13T04:11:41.950Z,11.20
2022-11-13T04:22:03.589Z,10.45
2022-11-13T04:32:26.299Z,10.18
2022-11-13T04:42:50.456Z,10.25
2022-11-13T04:53:13.194Z,10.73
2022-11-13T05:03:34.621Z,11.48
2022-11-13T05:14:02.151Z,11.75
2022-11-13T05:24:24.625Z,11.98
2022-11-13T05:34:47.453Z,12.13
2022-11-13T05:45:10.301Z,11.80
2022-11-13T05:55:32.971Z,10.65
2022-11-13T06:05:54.288Z,11.90
2022-11-13T06:16:19.356Z,11.65
2022-11-13T06:26:40.741Z,12.07
2022-11-13T06:37:03.827Z,13.70
2022-11-13T06:47:25.302Z,17.70
2022-11-13T06:57:48.347Z,16.10
2022-11-13T07:08:09.601Z,15.05
2022-11-13T07:18:32.716Z,17.13
2022-11-13T07:28:54.226Z,15.10
2022-11-13T07:39:17.294Z,15.85
2022-11-13T07:49:38.788Z,27.73
2022-11-13T08:00:01.569Z,23.85
2022-11-13T08:10:22.905Z,17.27
2022-11-13T08:20:45.854Z,16.40
2022-11-13T08:31:12.232Z,16.17
2022-11-13T08:41:35.212Z,15.82
2022-11-13T08:51:56.625Z,15.48
2022-11-13T09:02:19.656Z,13.38
2022-11-13T09:12:43.832Z,12.95
2022-11-13T09:23:09.284Z,9.23
2022-11-13T09:33:31.330Z,10.93
2022-11-13T09:43:59.750Z,9.43
2022-11-13T09:54:25.802Z,8.75
2022-11-13T10:05:02.122Z,8.77
2022-11-13T10:15:23.957Z,8.75
2022-11-13T10:26:01.375Z,8.43
2022-11-13T10:36:32.794Z,8.55
2022-11-13T10:58:14.843Z,7.03
2022-11-13T11:08:47.386Z,7.45
2022-11-13T11:19:14.182Z,7.03
2022-11-13T11:29:42.546Z,8.02
2022-11-13T11:40:17.500Z,8.15
2022-11-13T11:50:48.704Z,8.82
2022-11-13T12:01:18.645Z,9.25
2022-11-13T12:11:58.244Z,8.50
2022-11-13T12:22:31.101Z,6.85
2022-11-13T12:33:19.880Z,6.72
2022-11-13T12:44:16.107Z,7.40
2022-11-13T12:54:40.909Z,6.97
2022-11-13T13:05:15.085Z,5.72
2022-11-13T13:15:40.448Z,5.33
2022-11-13T13:26:18.094Z,4.80
2022-11-13T13:36:47.761Z,4.82
2022-11-13T13:47:18.696Z,4.90
2022-11-13T13:57:47.394Z,3.60
2022-11-13T14:08:18.398Z,3.40
2022-11-13T14:18:41.719Z,5.15
2022-11-13T14:29:14.771Z,3.53
2022-11-13T14:39:38.023Z,4.03
2022-11-13T14:50:10.726Z,5.15
2022-11-13T15:00:49.578Z,6.82
2022-11-13T15:11:15.018Z,5.82
2022-11-13T15:21:38.151Z,6.00
2022-11-13T15:31:59.841Z,6.53
2022-11-13T15:42:34.539Z,6.40
2022-11-13T15:53:02.346Z,6.95
2022-11-13T16:03:28.298Z,6.55
2022-11-13T16:13:50.146Z,6.95
2022-11-13T16:24:13.427Z,10.80
2022-11-13T16:34:34.952Z,8.45
2022-11-13T16:44:57.732Z,13.98
2022-11-13T16:55:19.121Z,23.90
2022-11-13T17:05:41.934Z,18.67
2022-11-13T17:16:03.471Z,18.17
2022-11-13T17:26:27.113Z,18.60
2022-11-13T17:36:48.518Z,16.02
2022-11-13T17:47:11.665Z,21.40
2022-11-13T17:57:33.320Z,24.67
2022-11-13T18:07:56.063Z,23.50
2022-11-13T18:18:17.450Z,20.42
2022-11-13T18:28:41.709Z,20.23
2022-11-13T18:39:03.940Z,19.58
2022-11-13T18:49:26.766Z,19.48
2022-11-13T18:59:48.346Z,23.58
2022-11-13T19:10:11.164Z,19.48
2022-11-13T19:20:32.642Z,20.98
2022-11-13T19:30:55.906Z,27.05
2022-11-13T19:41:17.706Z,21.08
2022-11-13T19:51:40.644Z,21.35
2022-11-13T20:02:02.016Z,20.48
2022-11-13T20:12:25.165Z,23.23
2022-11-13T20:22:46.623Z,23.20
2022-11-13T20:33:09.290Z,26.52
2022-11-13T20:43:32.230Z,24.40
2022-11-13T20:53:56.055Z,27.45
2022-11-13T21:04:17.559Z,26.77
2022-11-13T21:14:40.513Z,26.65
2022-11-13T21:25:02.135Z,24.83
2022-11-13T21:35:24.882Z,25.15
2022-11-13T21:45:46.841Z,25.35
2022-11-13T21:56:15.280Z,26.08
2022-11-13T22:06:37.508Z,24.13
2022-11-13T22:17:00.326Z,26.55
2022-11-13T22:27:21.616Z,28.35
2022-11-13T22:37:44.270Z,31.60
2022-11-13T22:48:06.602Z,29.10
2022-11-13T22:58:30.192Z,24.65
2022-11-13T23:08:53.114Z,21.75
2022-11-13T23:19:16.408Z,21.40
2022-11-13T23:29:37.940Z,20.10
2022-11-13T23:40:00.553Z,20.25
2022-11-13T23:50:21.703Z,19.63
